createdAt,value
2023-03-02T03:13:33.141Z,0.00
2023-03-02T03:14:33.027Z,0.00
2023-03-02T03:15:32.936Z,0.00
2023-03-02T03:16:33.241Z,0.00
2023-03-02T03:17:32.756Z,0.00
2023-03-02T03:18:32.668Z,0.00
2023-03-02T03:19:32.581Z,0.00
2023-03-02T03:20:32.490Z,0.00
2023-03-02T03:21:32.396Z,0.00
2023-03-02T03:22:32.308Z,0.00
2023-03-02T03:23:32.224Z,0.00
2023-03-02T03:24:32.123Z,0.00
2023-03-02T03:25:32.150Z,0.00
2023-03-02T03:26:32.254Z,0.00
2023-03-02T03:27:31.858Z,0.00
2023-03-02T03:28:31.765Z,0.00
2023-03-02T03:29:31.700Z,0.00
2023-03-02T03:30:31.623Z,0.00
2023-03-02T03:31:31.500Z,0.00
2023-03-02T03:32:31.454Z,0.00
2023-03-02T03:33:31.312Z,0.00
2023-03-02T03:34:31.225Z,0.00
2023-03-02T03:35:31.130Z,0.00
2023-03-02T03:36:31.450Z,0.00
2023-03-02T03:37:30.980Z,0.00
2023-03-02T03:38:30.862Z,0.00
2023-03-02T03:39:30.780Z,0.00
2023-03-02T03:40:30.982Z,0.00
2023-03-02T03:41:30.596Z,0.00
2023-03-02T03:42:30.504Z,0.00
2023-03-02T03:43:30.413Z,0.00
2023-03-02T03:44:30.326Z,0.00
2023-03-02T03:45:30.560Z,0.00
2023-03-02T03:46:30.536Z,0.00
2023-03-02T03:47:30.056Z,0.00
2023-03-02T03:48:29.968Z,0.00
2023-03-02T03:49:29.881Z,0.00
2023-03-02T03:50:29.789Z,0.00
2023-03-02T03:51:29.745Z,0.00
2023-03-02T03:52:29.600Z,0.00
2023-03-02T03:53:29.509Z,0.00
2023-03-02T03:54:29.517Z,0.00
2023-03-02T03:55:29.337Z,0.00
2023-03-02T03:56:29.330Z,0.00
2023-03-02T03:57:29.164Z,0.00
2023-03-02T03:58:29.130Z,0.00
2023-03-02T03:59:28.970Z,0.00
2023-03-02T04:00:28.878Z,0.00
2023-03-02T04:01:28.851Z,0.00
2023-03-02T04:02:28.717Z,0.00
2023-03-02T04:03:28.620Z,0.00
2023-03-02T04:04:28.717Z,0.00
2023-03-02T04:05:30.182Z,0.00
2023-03-02T04:06:28.686Z,0.00
2023-03-02T04:07:28.254Z,0.00
2023-03-02T04:08:28.175Z,0.00
2023-03-02T04:09:28.065Z,0.00
2023-03-02T04:10:27.977Z,0.00
2023-03-02T04:11:27.885Z,0.00
2023-03-02T04:12:27.795Z,0.00
2023-03-02T04:13:27.706Z,0.00
2023-03-02T04:14:27.613Z,0.00
2023-03-02T04:15:27.601Z,0.00
2023-03-02T04:16:27.430Z,0.00
2023-03-02T04:17:27.369Z,0.00
2023-03-02T04:18:27.252Z,0.00
2023-03-02T04:19:27.166Z,0.00
2023-03-02T04:20:27.070Z,0.00
2023-03-02T04:21:26.984Z,0.00
2023-03-02T04:22:26.893Z,0.00
2023-03-02T04:23:27.001Z,0.00
2023-03-02T04:24:26.716Z,0.00
2023-03-02T04:25:26.671Z,0.00
2023-03-02T04:26:26.538Z,0.00
2023-03-02T04:27:26.442Z,0.00
2023-03-02T04:28:26.367Z,0.00
2023-03-02T04:29:26.267Z,0.00
2023-03-02T04:30:26.173Z,0.00
2023-03-02T04:31:26.218Z,0.00
2023-03-02T04:32:26.049Z,0.00
2023-03-02T04:33:25.926Z,0.00
2023-03-02T04:34:25.814Z,0.00
2023-03-02T04:35:25.830Z,0.00
2023-03-02T04:36:26.648Z,0.00
2023-03-02T04:37:25.550Z,0.00
2023-03-02T04:38:25.460Z,0.00
2023-03-02T04:39:25.573Z,0.00
2023-03-02T04:40:25.280Z,0.00
2023-03-02T04:41:25.189Z,0.00
2023-03-02T04:42:25.097Z,0.00
2023-03-02T04:43:25.009Z,0.00
2023-03-02T04:44:24.922Z,0.00
2023-03-02T04:45:24.928Z,0.00
2023-03-02T04:46:24.774Z,0.00
2023-03-02T04:47:24.649Z,0.00
2023-03-02T04:48:24.561Z,0.00
2023-03-02T04:49:24.484Z,0.00
2023-03-02T04:50:24.376Z,0.00
2023-03-02T04:51:24.538Z,0.00
2023-03-02T04:52:24.248Z,0.00
2023-03-02T04:53:24.113Z,0.00
2023-03-02T04:54:24.019Z,0.00
2023-03-02T04:55:23.928Z,0.00
2023-03-02T04:56:23.841Z,0.00
2023-03-02T04:57:23.754Z,0.00
2023-03-02T04:58:23.656Z,0.00
2023-03-02T04:59:23.996Z,0.00
2023-03-02T05:00:23.482Z,0.00
2023-03-02T05:01:23.388Z,0.00
2023-03-02T05:02:23.350Z,0.00
2023-03-02T05:03:23.210Z,0.00
2023-03-02T05:04:23.213Z,0.00
2023-03-02T05:05:23.068Z,0.00
2023-03-02T05:06:22.952Z,0.00
2023-03-02T05:07:22.847Z,0.00
2023-03-02T05:08:23.320Z,0.00
2023-03-02T05:09:22.670Z,0.00
2023-03-02T05:10:22.611Z,0.00
2023-03-02T05:11:22.704Z,0.00
2023-03-02T05:12:22.460Z,0.00
2023-03-02T05:13:22.317Z,0.00
2023-03-02T05:14:22.216Z,0.00
2023-03-02T05:15:22.128Z,0.00
2023-03-02T05:16:22.092Z,0.00
2023-03-02T05:17:21.975Z,0.00
2023-03-02T05:18:21.853Z,0.00
2023-03-02T05:19:21.772Z,0.00
2023-03-02T05:20:21.672Z,0.00
2023-03-02T05:21:21.606Z,0.00
2023-03-02T05:22:21.600Z,0.00
2023-03-02T05:23:22.715Z,0.00
2023-03-02T05:24:21.318Z,0.00
2023-03-02T05:25:21.233Z,0.00
2023-03-02T05:26:21.535Z,0.00
2023-03-02T05:27:21.054Z,0.00
2023-03-02T05:28:20.946Z,0.00
2023-03-02T05:29:20.866Z,0.00
2023-03-02T05:30:20.770Z,0.00
2023-03-02T05:31:20.739Z,0.00
2023-03-02T05:32:20.638Z,0.00
2023-03-02T05:33:20.503Z,0.00
2023-03-02T05:34:20.434Z,0.00
2023-03-02T05:35:20.368Z,0.00
2023-03-02T05:36:22.856Z,0.00
2023-03-02T05:37:20.195Z,0.00
2023-03-02T05:38:20.077Z,0.00
2023-03-02T05:39:19.955Z,4.00
2023-03-02T05:40:19.881Z,4.00
2023-03-02T05:41:19.798Z,0.00
2023-03-02T05:42:19.735Z,4.00
2023-03-02T05:43:19.599Z,4.00
2023-03-02T05:44:19.507Z,4.00
2023-03-02T05:45:19.520Z,4.00
2023-03-02T05:46:21.593Z,4.00
2023-03-02T05:47:19.245Z,4.00
2023-03-02T05:48:19.167Z,4.00
2023-03-02T05:49:19.051Z,8.00
2023-03-02T05:50:18.961Z,8.00
2023-03-02T05:51:18.884Z,12.00
2023-03-02T05:52:19.084Z,12.00
2023-03-02T05:53:18.712Z,20.00
2023-03-02T05:54:18.601Z,20.00
2023-03-02T05:55:18.517Z,24.00
2023-03-02T05:56:18.422Z,32.00
2023-03-02T05:57:18.327Z,32.00
2023-03-02T05:58:18.243Z,36.00
2023-03-02T05:59:18.171Z,44.00
2023-03-02T06:00:18.053Z,48.00
2023-03-02T06:01:17.962Z,56.00
2023-03-02T06:02:17.922Z,64.00
2023-03-02T06:03:17.851Z,72.00
2023-03-02T06:04:17.846Z,80.00
2023-03-02T06:05:17.605Z,92.00
2023-03-02T06:06:17.514Z,100.00
2023-03-02T06:07:17.421Z,112.00
2023-03-02T06:08:17.332Z,124.00
2023-03-02T06:09:17.269Z,136.00
2023-03-02T06:10:17.348Z,148.00
2023-03-02T06:11:17.058Z,160.00
2023-03-02T06:12:16.971Z,176.00
2023-03-02T06:13:16.876Z,188.00
2023-03-02T06:14:17.243Z,208.00
2023-03-02T06:15:16.702Z,220.00
2023-03-02T06:16:16.642Z,236.00
2023-03-02T06:17:16.516Z,252.00
2023-03-02T06:18:16.434Z,272.00
2023-03-02T06:19:16.333Z,284.00
2023-03-02T06:20:16.248Z,300.00
2023-03-02T06:21:16.168Z,320.00
2023-03-02T06:22:16.072Z,336.00
2023-03-02T06:23:15.979Z,356.00
2023-03-02T06:24:15.882Z,376.00
2023-03-02T06:25:15.933Z,392.00
2023-03-02T06:26:15.696Z,408.00
2023-03-02T06:27:15.615Z,428.00
2023-03-02T06:28:15.589Z,444.00
2023-03-02T06:29:15.428Z,464.00
2023-03-02T06:30:15.425Z,484.00
2023-03-02T06:31:15.249Z,504.00
2023-03-02T06:32:15.316Z,524.00
2023-03-02T06:33:15.067Z,540.00
2023-03-02T06:34:14.978Z,556.00
2023-03-02T06:35:14.994Z,576.00
2023-03-02T06:36:14.825Z,596.00
2023-03-02T06:37:14.706Z,612.00
2023-03-02T06:38:14.617Z,628.00
2023-03-02T06:39:14.528Z,648.00
2023-03-02T06:40:14.446Z,664.00
2023-03-02T06:41:14.362Z,684.00
2023-03-02T06:42:14.318Z,700.00
2023-03-02T06:43:14.170Z,716.00
2023-03-02T06:44:14.076Z,736.00
2023-03-02T06:45:14.044Z,748.00
2023-03-02T06:46:13.953Z,764.00
2023-03-02T06:47:13.809Z,784.00
2023-03-02T06:48:13.715Z,796.00
2023-03-02T06:49:14.277Z,816.00
2023-03-02T06:50:13.534Z,832.00
2023-03-02T06:51:13.450Z,848.00
2023-03-02T06:52:13.364Z,864.00
2023-03-02T06:53:13.264Z,876.00
2023-03-02T06:54:13.173Z,892.00
2023-03-02T06:55:13.091Z,908.00
2023-03-02T06:56:12.993Z,924.00
2023-03-02T06:57:12.919Z,936.00
2023-03-02T06:58:12.813Z,952.00
2023-03-02T06:59:12.725Z,968.00
2023-03-02T07:00:12.688Z,984.00
2023-03-02T07:01:12.595Z,996.00
2023-03-02T07:02:12.452Z,1008.00
2023-03-02T07:03:12.370Z,1020.00
2023-03-02T07:04:12.287Z,1032.00
2023-03-02T07:05:12.184Z,1048.00
2023-03-02T07:06:12.090Z,1060.00
2023-03-02T07:07:12.002Z,1068.00
2023-03-02T07:08:11.909Z,1084.00
2023-03-02T07:09:11.821Z,1096.00
2023-03-02T07:10:11.729Z,1108.00
2023-03-02T07:11:11.653Z,1120.00
2023-03-02T07:12:11.549Z,1132.00
2023-03-02T07:13:11.486Z,1148.00
2023-03-02T07:14:11.372Z,1160.00
2023-03-02T07:15:11.288Z,1168.00
2023-03-02T07:16:11.214Z,1184.00
2023-03-02T07:17:11.096Z,1192.00
2023-03-02T07:18:11.028Z,1208.00
2023-03-02T07:19:10.951Z,1220.00
2023-03-02T07:20:10.832Z,1228.00
2023-03-02T07:21:10.745Z,1240.00
2023-03-02T07:22:10.665Z,1256.00
2023-03-02T07:23:10.566Z,1268.00
2023-03-02T07:24:10.470Z,1280.00
2023-03-02T07:25:10.389Z,1296.00
2023-03-02T07:26:10.294Z,1308.00
2023-03-02T07:27:10.206Z,1324.00
2023-03-02T07:28:10.110Z,1336.00
2023-03-02T07:29:10.043Z,1348.00
2023-03-02T07:30:09.930Z,1368.00
2023-03-02T07:31:09.907Z,1380.00
2023-03-02T07:32:12.462Z,1392.00
2023-03-02T07:33:09.667Z,1408.00
2023-03-02T07:34:09.593Z,1420.00
2023-03-02T07:35:09.479Z,1432.00
2023-03-02T07:36:09.392Z,1448.00
2023-03-02T07:37:09.309Z,1464.00
2023-03-02T07:38:09.214Z,1476.00
2023-03-02T07:39:09.127Z,1492.00
2023-03-02T07:40:09.189Z,1500.00
2023-03-02T07:41:08.949Z,1508.00
2023-03-02T07:42:08.969Z,1520.00
2023-03-02T07:43:08.770Z,1536.00
2023-03-02T07:44:08.680Z,1552.00
2023-03-02T07:45:08.617Z,1564.00
2023-03-02T07:46:08.619Z,1576.00
2023-03-02T07:47:08.405Z,1592.00
2023-03-02T07:48:08.325Z,1608.00
2023-03-02T07:49:08.233Z,1624.00
2023-03-02T07:50:08.147Z,1636.00
2023-03-02T07:51:08.062Z,1652.00
2023-03-02T07:52:07.968Z,1664.00
2023-03-02T07:53:07.874Z,1676.00
2023-03-02T07:54:07.800Z,1692.00
2023-03-02T07:55:07.736Z,1700.00
2023-03-02T07:56:07.629Z,1716.00
2023-03-02T07:57:07.903Z,1728.00
2023-03-02T07:58:07.430Z,1740.00
2023-03-02T07:59:07.359Z,1756.00
2023-03-02T08:00:07.671Z,1768.00
2023-03-02T08:01:07.184Z,1780.00
2023-03-02T08:02:07.127Z,1792.00
2023-03-02T08:03:07.094Z,1804.00
2023-03-02T08:04:06.937Z,1816.00
2023-03-02T08:05:06.810Z,1824.00
2023-03-02T08:06:06.763Z,1836.00
2023-03-02T08:07:06.680Z,1844.00
2023-03-02T08:08:07.008Z,1860.00
2023-03-02T08:09:06.463Z,1872.00
2023-03-02T08:10:06.422Z,1880.00
2023-03-02T08:11:06.282Z,1892.00
2023-03-02T08:12:06.199Z,1900.00
2023-03-02T08:13:06.153Z,1908.00
2023-03-02T08:14:06.064Z,1920.00
2023-03-02T08:15:05.929Z,1920.00
2023-03-02T08:16:05.905Z,1936.00
2023-03-02T08:17:05.802Z,1944.00
2023-03-02T08:18:05.714Z,1956.00
2023-03-02T08:20:05.491Z,1968.00
2023-03-02T08:21:05.424Z,1980.00
2023-03-02T08:22:05.321Z,1988.00
2023-03-02T08:23:05.292Z,2000.00
2023-03-02T08:24:05.159Z,2008.00
2023-03-02T08:25:05.061Z,2016.00
2023-03-02T08:26:05.011Z,2020.00
2023-03-02T08:27:04.990Z,2036.00
2023-03-02T08:28:04.788Z,2044.00
2023-03-02T08:29:04.718Z,2056.00
2023-03-02T08:30:04.613Z,2060.00
2023-03-02T08:31:04.570Z,2076.00
2023-03-02T08:32:05.074Z,2088.00
2023-03-02T08:33:07.115Z,2092.00
2023-03-02T08:34:04.298Z,2104.00
2023-03-02T08:35:04.187Z,2112.00
2023-03-02T08:36:04.182Z,2116.00
2023-03-02T08:37:04.094Z,2124.00
2023-03-02T08:38:03.908Z,2132.00
2023-03-02T08:39:03.827Z,2140.00
2023-03-02T08:40:03.746Z,2148.00
2023-03-02T08:41:03.649Z,2156.00
2023-03-02T08:42:03.564Z,2164.00
2023-03-02T08:43:03.481Z,2172.00
2023-03-02T08:44:03.398Z,2176.00
2023-03-02T08:45:03.303Z,2188.00
2023-03-02T08:46:03.372Z,2196.00
2023-03-02T08:48:03.044Z,2212.00
2023-03-02T08:49:02.971Z,2232.00
2023-03-02T08:50:02.865Z,2236.00
2023-03-02T08:51:02.777Z,2244.00
2023-03-02T08:52:02.690Z,2248.00
2023-03-02T08:53:02.800Z,2256.00
2023-03-02T08:54:02.514Z,2268.00
2023-03-02T08:55:03.877Z,2280.00
2023-03-02T08:56:02.340Z,2288.00
2023-03-02T08:57:02.262Z,2292.00
2023-03-02T08:58:02.172Z,2312.00
2023-03-02T08:59:02.080Z,2332.00
2023-03-02T09:00:01.996Z,2340.00
2023-03-02T09:01:01.970Z,2356.00
2023-03-02T09:02:01.819Z,2368.00
2023-03-02T09:03:01.728Z,2368.00
2023-03-02T09:04:01.692Z,2384.00
2023-03-02T09:05:01.577Z,2396.00
2023-03-02T09:06:01.469Z,2408.00
2023-03-02T09:07:01.388Z,2424.00
2023-03-02T09:08:01.295Z,2428.00
2023-03-02T09:09:01.213Z,2444.00
2023-03-02T09:10:01.140Z,2452.00
2023-03-02T09:11:01.038Z,2464.00
2023-03-02T09:12:00.950Z,2476.00
2023-03-02T09:13:00.858Z,2488.00
2023-03-02T09:14:00.776Z,2500.00
2023-03-02T09:15:00.686Z,2512.00
2023-03-02T09:16:00.600Z,2528.00
2023-03-02T09:17:00.587Z,2540.00
2023-03-02T09:18:00.435Z,2568.00
2023-03-02T09:19:00.341Z,2580.00
2023-03-02T09:20:00.548Z,2584.00
2023-03-02T09:21:00.200Z,2608.00
2023-03-02T09:22:00.106Z,2612.00
2023-03-02T09:23:00.005Z,2624.00
2023-03-02T09:23:59.916Z,2628.00
2023-03-02T09:24:59.816Z,2648.00
2023-03-02T09:25:59.732Z,2664.00
2023-03-02T09:26:59.656Z,2676.00
2023-03-02T09:27:59.561Z,2692.00
2023-03-02T09:28:59.476Z,2712.00
2023-03-02T09:29:59.387Z,2728.00
2023-03-02T09:30:59.304Z,2728.00
2023-03-02T09:31:59.360Z,2732.00
2023-03-02T09:32:59.335Z,2764.00
2023-03-02T09:33:59.057Z,2768.00
2023-03-02T09:34:58.958Z,2796.00
2023-03-02T09:35:58.869Z,2788.00
2023-03-02T09:36:58.801Z,2800.00
2023-03-02T09:37:58.721Z,2824.00
2023-03-02T09:38:58.608Z,2868.00
2023-03-02T09:39:58.526Z,2864.00
2023-03-02T09:40:58.470Z,2900.00
2023-03-02T09:41:58.361Z,2916.00
2023-03-02T09:42:58.265Z,2948.00
2023-03-02T09:44:00.082Z,2944.00
2023-03-02T09:44:58.091Z,2952.00
2023-03-02T09:45:58.056Z,2996.00
2023-03-02T09:46:57.970Z,2996.00
2023-03-02T09:47:57.840Z,2996.00
2023-03-02T09:48:57.753Z,3032.00
2023-03-02T09:49:57.684Z,3048.00
2023-03-02T09:50:57.580Z,3072.00
2023-03-02T09:51:57.493Z,3104.00
2023-03-02T09:52:57.515Z,3120.00
2023-03-02T09:53:57.550Z,3152.00
2023-03-02T09:54:57.241Z,3200.00
2023-03-02T09:55:57.152Z,3924.00
2023-03-02T09:56:57.064Z,6524.00
2023-03-02T09:57:57.004Z,8404.00
2023-03-02T09:58:56.904Z,6748.00
2023-03-02T09:59:59.866Z,3760.00
2023-03-02T10:00:56.725Z,3320.00
2023-03-02T10:01:56.642Z,3820.00
2023-03-02T10:03:02.483Z,6928.00
2023-03-02T10:03:56.768Z,8312.00
2023-03-02T10:04:56.475Z,7156.00
2023-03-02T10:05:56.320Z,8248.00
2023-03-02T10:06:56.219Z,8396.00
2023-03-02T10:07:57.830Z,8596.00
2023-03-02T10:08:56.068Z,8656.00
2023-03-02T10:09:55.964Z,8996.00
2023-03-02T10:10:55.884Z,9500.00
2023-03-02T10:11:55.801Z,10644.00
2023-03-02T10:12:55.724Z,9492.00
2023-03-02T10:13:55.888Z,7976.00
2023-03-02T10:14:55.552Z,8000.00
2023-03-02T10:15:55.550Z,9536.00
2023-03-02T10:16:55.383Z,10916.00
2023-03-02T10:17:55.309Z,15840.00
2023-03-02T10:18:55.426Z,12332.00
2023-03-02T10:19:55.141Z,11044.00
2023-03-02T10:20:55.260Z,8628.00
2023-03-02T10:21:54.979Z,8516.00
2023-03-02T10:22:54.891Z,7564.00
2023-03-02T10:23:54.811Z,7396.00
2023-03-02T10:24:54.783Z,7980.00
2023-03-02T10:25:54.653Z,7716.00
2023-03-02T10:26:54.584Z,6532.00
2023-03-02T10:27:54.527Z,5772.00
2023-03-02T10:28:54.406Z,6492.00
2023-03-02T10:29:54.322Z,7396.00
2023-03-02T10:30:54.272Z,8108.00
2023-03-02T10:31:54.214Z,8916.00
2023-03-02T10:32:54.076Z,10312.00
2023-03-02T10:33:53.997Z,11736.00
2023-03-02T10:34:53.919Z,8848.00
2023-03-02T10:35:54.096Z,10580.00
2023-03-02T10:36:53.757Z,8976.00
2023-03-02T10:37:53.756Z,7256.00
2023-03-02T10:38:53.596Z,5312.00
2023-03-02T10:39:53.513Z,4524.00
2023-03-02T10:40:53.447Z,5008.00
2023-03-02T10:41:53.399Z,4660.00
2023-03-02T10:42:53.269Z,4192.00
2023-03-02T10:43:53.188Z,4088.00
2023-03-02T10:44:53.104Z,4056.00
2023-03-02T10:45:53.073Z,4396.00
2023-03-02T10:46:52.943Z,8276.00
2023-03-02T10:47:52.865Z,10000.00
2023-03-02T10:48:52.796Z,10724.00
2023-03-02T10:49:52.799Z,13620.00
2023-03-02T10:50:52.620Z,14496.00
2023-03-02T10:51:52.543Z,12940.00
2023-03-02T10:52:59.924Z,13540.00
2023-03-02T10:53:52.382Z,18400.00
2023-03-02T10:54:52.295Z,16864.00
2023-03-02T10:55:52.218Z,13592.00
2023-03-02T10:56:52.236Z,12180.00
2023-03-02T10:57:52.064Z,9776.00
2023-03-02T10:58:51.969Z,8144.00
2023-03-02T10:59:51.890Z,9148.00
2023-03-02T11:00:51.812Z,10268.00
2023-03-02T11:01:51.770Z,11824.00
2023-03-02T11:02:51.652Z,12576.00
2023-03-02T11:03:51.568Z,13292.00
2023-03-02T11:04:51.578Z,10492.00
2023-03-02T11:05:51.406Z,10640.00
2023-03-02T11:06:53.090Z,14244.00
2023-03-02T11:07:51.249Z,16288.00
2023-03-02T11:08:51.168Z,15840.00
2023-03-02T11:09:51.095Z,14128.00
2023-03-02T11:10:51.019Z,15584.00
2023-03-02T11:11:51.182Z,19680.00
2023-03-02T11:12:50.939Z,18688.00
2023-03-02T11:13:50.772Z,23136.00
2023-03-02T11:14:50.698Z,21792.00
2023-03-02T11:15:50.665Z,26144.00
2023-03-02T11:16:50.523Z,17792.00
2023-03-02T11:17:50.447Z,13028.00
2023-03-02T11:18:50.369Z,12496.00
2023-03-02T11:19:50.321Z,15088.00
2023-03-02T11:20:50.211Z,18944.00
2023-03-02T11:21:50.314Z,20576.00
2023-03-02T11:22:50.215Z,16160.00
2023-03-02T11:23:50.026Z,15320.00
2023-03-02T11:24:49.905Z,14380.00
2023-03-02T11:25:49.817Z,12668.00
2023-03-02T11:26:49.737Z,13840.00
2023-03-02T11:27:49.659Z,16800.00
2023-03-02T11:28:49.600Z,19712.00
2023-03-02T11:29:49.506Z,15416.00
2023-03-02T11:30:49.473Z,11892.00
2023-03-02T11:31:49.443Z,10876.00
2023-03-02T11:32:49.402Z,12696.00
2023-03-02T11:33:49.275Z,18272.00
2023-03-02T11:34:49.114Z,24160.00
2023-03-02T11:35:49.156Z,29568.00
2023-03-02T11:36:49.015Z,32992.00
2023-03-02T11:37:48.884Z,31264.00
2023-03-02T11:38:48.809Z,26624.00
2023-03-02T11:39:55.528Z,33472.00
2023-03-02T11:40:50.065Z,38592.00
2023-03-02T11:41:48.577Z,37856.00
2023-03-02T11:42:48.500Z,36096.00
2023-03-02T11:43:48.419Z,37344.00
2023-03-02T11:44:48.382Z,35168.00
2023-03-02T11:45:48.306Z,39232.00
2023-03-02T11:46:48.265Z,40800.00
2023-03-02T11:47:57.646Z,30528.00
2023-03-02T11:48:48.034Z,26528.00
2023-03-02T11:49:48.011Z,29152.00
2023-03-02T11:50:47.891Z,28608.00
2023-03-02T11:51:57.835Z,28480.00
2023-03-02T11:52:47.735Z,31936.00
2023-03-02T11:53:47.770Z,36032.00
2023-03-02T11:54:47.600Z,41152.00
2023-03-02T11:55:47.513Z,41760.00
2023-03-02T11:56:47.440Z,37024.00
2023-03-02T11:57:47.363Z,35808.00
2023-03-02T11:58:47.290Z,37408.00
2023-03-02T11:59:47.213Z,36192.00
2023-03-02T12:00:47.160Z,33696.00
2023-03-02T12:01:47.104Z,30112.00
2023-03-02T12:02:46.991Z,32192.00
2023-03-02T12:03:46.917Z,35712.00
2023-03-02T12:04:46.848Z,33984.00
2023-03-02T12:05:46.932Z,27872.00
2023-03-02T12:06:46.703Z,36288.00
2023-03-02T12:07:46.624Z,40224.00
2023-03-02T12:08:46.631Z,41248.00
2023-03-02T12:10:49.029Z,44352.00
2023-03-02T12:11:46.370Z,45280.00
2023-03-02T12:12:46.266Z,44768.00
2023-03-02T12:13:46.193Z,44736.00
2023-03-02T12:14:46.119Z,44320.00
2023-03-02T12:16:46.455Z,43808.00
2023-03-02T12:17:45.935Z,43520.00
2023-03-02T12:18:45.860Z,43328.00
2023-03-02T12:19:45.783Z,43648.00
2023-03-02T12:20:47.104Z,43456.00
2023-03-02T12:22:28.575Z,42624.00
2023-03-02T12:23:28.500Z,42592.00
2023-03-02T12:24:28.443Z,42048.00
2023-03-02T12:25:28.358Z,41888.00
2023-03-02T12:26:28.489Z,41376.00
2023-03-02T12:27:28.310Z,41248.00
2023-03-02T12:28:28.218Z,41120.00
2023-03-02T12:30:10.638Z,40608.00
2023-03-02T12:31:10.863Z,39872.00
2023-03-02T12:32:10.581Z,39872.00
2023-03-02T12:33:10.455Z,39680.00
2023-03-02T12:34:10.396Z,39136.00
2023-03-02T12:35:10.220Z,38848.00
2023-03-02T12:36:10.148Z,38592.00
2023-03-02T12:37:10.683Z,37856.00
2023-03-02T12:38:10.051Z,38720.00
2023-03-02T12:39:09.937Z,38912.00
2023-03-02T12:40:10.024Z,38240.00
2023-03-02T12:41:09.911Z,37760.00
2023-03-02T12:42:09.818Z,37376.00
2023-03-02T12:43:09.732Z,36768.00
2023-03-02T12:44:09.623Z,36736.00
2023-03-02T12:45:09.553Z,36704.00
2023-03-02T12:46:09.551Z,36000.00
2023-03-02T12:47:09.738Z,36256.00
2023-03-02T12:48:09.549Z,35616.00
2023-03-02T12:49:10.306Z,35136.00
2023-03-02T12:50:09.169Z,35584.00
2023-03-02T12:51:09.130Z,35328.00
2023-03-02T12:52:09.123Z,35424.00
2023-03-02T12:53:09.209Z,34752.00
2023-03-02T12:54:08.889Z,34816.00
2023-03-02T12:55:08.826Z,34848.00
2023-03-02T12:56:08.937Z,34656.00
2023-03-02T12:57:08.897Z,34368.00
2023-03-02T12:58:08.959Z,34528.00
2023-03-02T12:59:08.544Z,34368.00
2023-03-02T13:00:08.486Z,34624.00
2023-03-02T13:01:08.475Z,34752.00
2023-03-02T13:08:05.374Z,36832.00
2023-03-02T13:09:57.301Z,36256.00
2023-03-02T13:10:53.980Z,36160.00
2023-03-02T13:11:53.904Z,35840.00
2023-03-02T13:12:53.835Z,35968.00
2023-03-02T13:13:54.114Z,32480.00
2023-03-02T13:31:04.914Z,34176.00
2023-03-02T13:32:04.650Z,33856.00
2023-03-02T13:33:04.581Z,34432.00
2023-03-02T13:34:04.506Z,34848.00
2023-03-02T13:35:04.446Z,35040.00
2023-03-02T13:36:04.380Z,35520.00
2023-03-02T13:37:04.300Z,34496.00
2023-03-02T13:38:04.268Z,35200.00
2023-03-02T13:39:04.165Z,36032.00
2023-03-02T13:40:04.095Z,36032.00
2023-03-02T13:44:12.182Z,37824.00
2023-03-02T13:45:12.110Z,38848.00
2023-03-02T13:46:12.132Z,40992.00
2023-03-02T13:47:11.974Z,41888.00
2023-03-02T13:48:11.906Z,42592.00
2023-03-02T13:49:12.021Z,43776.00
2023-03-02T13:50:11.892Z,45568.00
2023-03-02T13:51:11.698Z,47520.00
2023-03-02T13:52:11.641Z,46400.00
2023-03-02T13:53:11.563Z,36992.00
2023-03-02T13:54:11.548Z,34880.00
2023-03-02T13:55:11.431Z,30528.00
2023-03-02T13:56:11.360Z,31328.00
2023-03-02T13:57:11.297Z,23936.00
2023-03-02T13:58:53.714Z,23904.00
2023-03-02T13:59:53.646Z,26368.00
2023-03-02T14:00:53.570Z,26912.00
2023-03-02T14:01:53.535Z,29760.00
2023-03-02T14:02:53.453Z,28768.00
2023-03-02T14:03:53.474Z,26848.00
2023-03-02T14:04:53.430Z,26912.00
2023-03-02T14:05:53.225Z,24832.00
2023-03-02T14:06:53.396Z,21312.00
2023-03-02T14:07:53.092Z,20160.00
2023-03-02T14:08:53.016Z,17696.00
2023-03-02T14:09:52.946Z,13484.00
2023-03-02T14:10:52.883Z,12400.00
2023-03-02T14:11:52.804Z,12508.00
2023-03-02T14:12:52.738Z,13316.00
2023-03-02T14:13:52.666Z,13580.00
2023-03-02T14:14:52.698Z,14712.00
2023-03-02T14:15:52.609Z,14276.00
2023-03-02T14:16:52.463Z,14128.00
2023-03-02T14:17:52.407Z,15904.00
2023-03-02T14:18:52.313Z,13512.00
2023-03-02T14:19:52.250Z,9288.00
2023-03-02T14:20:52.201Z,10200.00
2023-03-02T14:21:52.099Z,10228.00
2023-03-02T14:22:52.032Z,9108.00
2023-03-02T14:23:52.070Z,10064.00
2023-03-02T14:24:51.897Z,11720.00
2023-03-02T14:25:51.813Z,15712.00
2023-03-02T14:26:51.744Z,18208.00
2023-03-02T14:27:51.671Z,18816.00
2023-03-02T14:29:04.597Z,18656.00
2023-03-02T14:29:51.525Z,18560.00
2023-03-02T14:30:51.490Z,18752.00
2023-03-02T14:31:51.436Z,18368.00
2023-03-02T14:32:51.309Z,17280.00
2023-03-02T14:33:51.454Z,14324.00
2023-03-02T14:34:51.168Z,13444.00
2023-03-02T14:35:51.190Z,13740.00
2023-03-02T14:36:51.036Z,14292.00
2023-03-02T14:37:50.957Z,13968.00
2023-03-02T14:41:16.532Z,13324.00
2023-03-02T14:42:16.462Z,15360.00
2023-03-02T14:43:16.389Z,17408.00
2023-03-02T14:44:16.319Z,17728.00
2023-03-02T14:45:16.245Z,17856.00
2023-03-02T14:46:16.255Z,17888.00
2023-03-02T14:47:16.101Z,17856.00
2023-03-02T14:48:16.026Z,17728.00
2023-03-02T14:49:16.026Z,17504.00
2023-03-02T14:50:15.886Z,17280.00
2023-03-02T14:51:15.812Z,17088.00
2023-03-02T14:52:15.744Z,16672.00
2023-03-02T14:53:15.678Z,14016.00
2023-03-02T14:54:15.597Z,10780.00
2023-03-02T14:55:15.576Z,8404.00
2023-03-02T14:56:15.454Z,7416.00
2023-03-02T14:57:15.382Z,6736.00
2023-03-02T14:58:15.326Z,6088.00
2023-03-02T14:59:15.240Z,5516.00
2023-03-02T15:00:15.169Z,5136.00
2023-03-02T15:01:15.124Z,4920.00
2023-03-02T15:02:24.840Z,4808.00
2023-03-02T15:03:15.039Z,4708.00
2023-03-02T15:04:14.883Z,4576.00
2023-03-02T15:05:15.030Z,4412.00
2023-03-02T15:19:54.381Z,3012.00
2023-03-02T15:20:54.320Z,2980.00
2023-03-02T15:21:54.224Z,2944.00
2023-03-02T15:22:54.147Z,2892.00
2023-03-02T15:23:54.080Z,2864.00
2023-03-02T15:24:53.996Z,2852.00
2023-03-02T15:25:53.920Z,2824.00
2023-03-02T15:26:53.850Z,2792.00
2023-03-02T15:27:53.766Z,2772.00
2023-03-02T15:28:53.687Z,2752.00
2023-03-02T15:29:56.355Z,2732.00
2023-03-02T15:30:53.533Z,2720.00
2023-03-02T15:31:53.684Z,2692.00
2023-03-02T15:32:53.374Z,2668.00
2023-03-02T15:33:53.296Z,2644.00
2023-03-02T15:34:53.220Z,2616.00
2023-03-02T15:35:55.254Z,2588.00
2023-03-02T15:36:53.080Z,2560.00
2023-03-02T15:37:52.992Z,2540.00
2023-03-02T15:38:52.909Z,2516.00
2023-03-02T15:39:52.828Z,2484.00
2023-03-02T15:41:40.235Z,2440.00
2023-03-02T15:42:40.155Z,2420.00
2023-03-02T15:43:40.096Z,2400.00
2023-03-02T15:44:39.998Z,2384.00
2023-03-02T15:45:39.917Z,2364.00
2023-03-02T15:46:39.905Z,2356.00
2023-03-02T15:47:39.822Z,2340.00
2023-03-02T15:48:39.701Z,2336.00
2023-03-02T15:49:39.629Z,2320.00
2023-03-02T15:50:39.535Z,2300.00
2023-03-02T15:51:39.448Z,2280.00
2023-03-02T15:52:39.392Z,2264.00
2023-03-02T15:53:39.306Z,2236.00
2023-03-02T15:54:39.211Z,2212.00
2023-03-02T15:55:39.132Z,2192.00
2023-03-02T15:56:44.414Z,2168.00
2023-03-02T15:57:38.975Z,2140.00
2023-03-02T15:58:38.928Z,2112.00
2023-03-02T15:59:39.066Z,2080.00
2023-03-02T16:00:38.759Z,2052.00
2023-03-02T16:01:38.670Z,2020.00
2023-03-02T16:02:38.599Z,1988.00
2023-03-02T16:03:38.502Z,1952.00
2023-03-02T16:04:38.425Z,1924.00
2023-03-02T16:05:38.339Z,1892.00
2023-03-02T16:06:38.266Z,1864.00
2023-03-02T16:07:38.184Z,1828.00
2023-03-02T16:08:38.132Z,1796.00
2023-03-02T16:09:38.026Z,1764.00
2023-03-02T16:10:38.041Z,1728.00
2023-03-02T16:11:38.118Z,1692.00
2023-03-02T16:12:37.789Z,1652.00
2023-03-02T16:13:37.711Z,1612.00
2023-03-02T16:14:37.936Z,1580.00
2023-03-02T16:15:37.948Z,1544.00
2023-03-02T16:16:37.783Z,1516.00
2023-03-02T16:17:37.393Z,1488.00